createdAt,value
2022-10-03T00:01:20.059Z,10.00
2022-10-03T00:04:06.199Z,10.00
2022-10-03T00:06:36.301Z,10.10
2022-10-03T00:09:15.278Z,10.10
2022-10-03T00:11:45.155Z,10.10
2022-10-03T00:14:21.658Z,10.20
2022-10-03T00:17:22.041Z,10.30
2022-10-03T00:19:54.955Z,10.30
2022-10-03T00:22:29.270Z,10.40
2022-10-03T00:25:22.181Z,10.40
2022-10-03T00:28:27.220Z,10.40
2022-10-03T00:30:54.320Z,10.40
2022-10-03T00:33:31.192Z,10.40
2022-10-03T00:36:19.470Z,10.50
2022-10-03T00:39:17.132Z,10.50
2022-10-03T00:42:19.284Z,10.50
2022-10-03T00:45:23.954Z,10.60
2022-10-03T00:48:18.801Z,10.60
2022-10-03T00:50:56.822Z,10.60
2022-10-03T00:53:45.540Z,10.60
2022-10-03T00:56:15.834Z,10.50
2022-10-03T00:59:03.161Z,10.50
2022-10-03T01:01:38.707Z,10.50
2022-10-03T01:04:34.962Z,10.50
2022-10-03T01:07:02.053Z,10.50
2022-10-03T01:09:41.421Z,10.40
2022-10-03T01:12:32.290Z,10.50
2022-10-03T01:15:20.648Z,10.50
2022-10-03T01:18:20.363Z,10.40
2022-10-03T01:20:53.318Z,10.30
2022-10-03T01:23:31.466Z,10.30
2022-10-03T01:26:36.179Z,10.20
2022-10-03T01:29:39.325Z,10.20
2022-10-03T01:32:14.207Z,10.10
2022-10-03T01:35:10.267Z,10.00
2022-10-03T01:38:09.379Z,10.00
2022-10-03T01:41:04.448Z,9.90
2022-10-03T01:44:00.829Z,9.90
2022-10-03T01:46:39.607Z,9.90
2022-10-03T01:49:38.454Z,9.90
2022-10-03T01:52:46.057Z,9.90
2022-10-03T01:55:23.990Z,9.80
2022-10-03T01:58:01.718Z,9.80
2022-10-03T02:00:47.433Z,9.70
2022-10-03T02:03:21.842Z,9.60
2022-10-03T02:06:06.836Z,9.50
2022-10-03T02:09:01.014Z,9.60
2022-10-03T02:11:40.494Z,9.60
2022-10-03T02:14:24.000Z,9.50
2022-10-03T02:17:00.170Z,9.50
2022-10-03T02:19:45.853Z,9.50
2022-10-03T02:22:30.085Z,9.50
2022-10-03T02:25:16.477Z,9.40
2022-10-03T02:28:06.560Z,9.40
2022-10-03T02:30:39.969Z,9.40
2022-10-03T02:33:47.812Z,9.30
2022-10-03T02:36:52.949Z,9.30
2022-10-03T02:39:35.645Z,9.30
2022-10-03T02:42:25.230Z,9.20
2022-10-03T02:45:13.733Z,9.20
2022-10-03T02:47:56.896Z,9.10
2022-10-03T02:50:39.329Z,9.00
2022-10-03T02:53:18.298Z,9.00
2022-10-03T02:56:26.759Z,8.90
2022-10-03T02:59:33.338Z,8.90
2022-10-03T03:02:15.654Z,8.90
2022-10-03T03:05:13.990Z,8.80
2022-10-03T03:08:05.649Z,8.80
2022-10-03T03:11:19.360Z,8.80
2022-10-03T03:13:55.632Z,8.70
2022-10-03T03:16:56.556Z,8.70
2022-10-03T03:20:06.086Z,8.70
2022-10-03T03:22:36.176Z,8.70
2022-10-03T03:25:45.165Z,8.70
2022-10-03T03:28:57.673Z,8.60
2022-10-03T03:31:45.297Z,8.60
2022-10-03T03:34:27.506Z,8.60
2022-10-03T03:37:09.046Z,8.60
2022-10-03T03:40:12.942Z,8.60
2022-10-03T03:42:55.548Z,8.60
2022-10-03T03:45:40.558Z,8.60
2022-10-03T03:48:26.135Z,8.60
2022-10-03T03:51:33.317Z,8.50
2022-10-03T03:54:32.995Z,8.50
2022-10-03T03:57:03.040Z,8.50
2022-10-03T03:59:33.143Z,8.50
2022-10-03T04:02:18.609Z,8.40
2022-10-03T04:04:52.204Z,8.40
2022-10-03T04:07:30.928Z,8.30
2022-10-03T04:10:38.425Z,8.30
2022-10-03T04:13:10.172Z,8.30
2022-10-03T04:16:11.499Z,8.30
2022-10-03T04:19:06.946Z,8.30
2022-10-03T04:21:58.864Z,8.20
2022-10-03T04:24:53.153Z,8.20
2022-10-03T04:27:33.923Z,8.20
2022-10-03T04:30:19.124Z,8.20
2022-10-03T04:33:25.546Z,8.20
2022-10-03T04:36:20.983Z,8.20
2022-10-03T04:38:53.866Z,8.20
2022-10-03T04:41:49.836Z,8.20
2022-10-03T04:44:17.009Z,8.20
2022-10-03T04:46:58.201Z,8.10
2022-10-03T04:49:32.682Z,8.10
2022-10-03T04:52:14.681Z,8.10
2022-10-03T04:55:12.597Z,8.00
2022-10-03T04:58:04.872Z,8.00
2022-10-03T05:00:58.619Z,8.00
2022-10-03T05:03:43.594Z,8.00
2022-10-03T05:06:25.748Z,7.90
2022-10-03T05:09:23.749Z,7.90
2022-10-03T05:11:59.749Z,7.80
2022-10-03T05:14:31.537Z,7.80
2022-10-03T05:17:34.104Z,7.80
2022-10-03T05:20:31.681Z,7.80
2022-10-03T05:23:04.732Z,7.80
2022-10-03T05:26:32.257Z,7.80
2022-10-03T05:29:06.911Z,7.90
2022-10-03T05:31:49.982Z,8.00
2022-10-03T05:34:36.677Z,8.00
2022-10-03T05:37:06.621Z,8.00
2022-10-03T05:39:53.948Z,8.10
2022-10-03T05:42:42.393Z,8.10
2022-10-03T05:45:31.893Z,8.10
2022-10-03T05:48:14.185Z,8.10
2022-10-03T05:50:59.406Z,8.00
2022-10-03T05:53:32.652Z,8.00
2022-10-03T05:56:18.042Z,8.00
2022-10-03T05:58:54.479Z,8.00
2022-10-03T06:01:42.792Z,8.00
2022-10-03T06:04:16.112Z,8.00
2022-10-03T06:07:06.083Z,8.00
2022-10-03T06:10:17.938Z,8.00
2022-10-03T06:12:51.434Z,7.90
2022-10-03T06:15:46.127Z,7.90
2022-10-03T06:18:23.237Z,8.00
2022-10-03T06:21:12.871Z,8.00
2022-10-03T06:24:11.271Z,8.00
2022-10-03T06:27:00.005Z,7.90
2022-10-03T06:29:46.063Z,8.00
2022-10-03T06:32:22.764Z,8.00
2022-10-03T06:35:23.934Z,8.10
2022-10-03T06:38:11.887Z,8.10
2022-10-03T06:40:50.959Z,8.20
2022-10-03T06:43:51.352Z,8.20
2022-10-03T06:46:40.592Z,8.30
2022-10-03T06:49:27.818Z,8.30
2022-10-03T06:52:17.199Z,8.30
2022-10-03T06:55:06.001Z,8.40
2022-10-03T06:58:12.462Z,8.40
2022-10-03T07:01:00.957Z,8.50
2022-10-03T07:04:01.973Z,8.50
2022-10-03T07:06:44.214Z,8.60
2022-10-03T07:09:23.568Z,8.60
2022-10-03T07:12:18.143Z,8.60
2022-10-03T07:15:04.362Z,8.70
2022-10-03T07:18:01.229Z,8.70
2022-10-03T07:21:05.907Z,8.80
2022-10-03T07:23:54.470Z,8.90
2022-10-03T07:26:48.039Z,8.90
2022-10-03T07:30:04.838Z,9.10
2022-10-03T07:32:55.600Z,9.20
2022-10-03T07:36:12.235Z,9.40
2022-10-03T07:39:00.915Z,9.70
2022-10-03T07:42:00.290Z,9.80
2022-10-03T07:44:50.195Z,9.90
2022-10-03T07:47:54.311Z,10.00
2022-10-03T07:50:40.306Z,10.10
2022-10-03T07:53:22.432Z,10.10
2022-10-03T07:56:14.423Z,10.20
2022-10-03T07:58:52.238Z,10.20
2022-10-03T08:01:36.418Z,10.30
2022-10-03T08:04:31.810Z,10.40
2022-10-03T08:07:16.974Z,10.40
2022-10-03T08:09:59.291Z,10.50
2022-10-03T08:12:47.943Z,10.50
2022-10-03T08:16:25.591Z,10.60
2022-10-03T08:19:18.795Z,10.60
2022-10-03T08:22:02.039Z,10.70
2022-10-03T08:24:42.642Z,10.80
2022-10-03T08:27:29.416Z,10.80
2022-10-03T08:30:02.535Z,10.90
2022-10-03T08:32:48.419Z,11.00
2022-10-03T08:35:38.849Z,11.00
2022-10-03T08:38:23.915Z,11.10
2022-10-03T08:40:57.393Z,11.20
2022-10-03T08:43:43.383Z,11.30
2022-10-03T08:46:33.275Z,11.30
2022-10-03T08:49:30.941Z,11.40
2022-10-03T08:52:26.207Z,11.40
2022-10-03T08:54:59.907Z,11.60
2022-10-03T08:58:09.169Z,11.60
2022-10-03T09:01:03.910Z,11.60
2022-10-03T09:03:52.612Z,11.70
2022-10-03T09:06:30.979Z,11.70
2022-10-03T09:09:20.151Z,11.80
2022-10-03T09:12:09.180Z,11.70
2022-10-03T09:15:05.796Z,11.80
2022-10-03T09:18:07.685Z,11.90
2022-10-03T09:21:01.238Z,11.90
2022-10-03T09:24:06.934Z,11.90
2022-10-03T09:26:54.763Z,11.90
2022-10-03T09:29:37.994Z,11.90
2022-10-03T09:32:23.696Z,12.00
2022-10-03T09:35:03.668Z,12.10
2022-10-03T09:38:22.669Z,12.20
2022-10-03T09:41:28.692Z,12.30
2022-10-03T09:44:33.674Z,12.30
2022-10-03T09:47:49.116Z,12.40
2022-10-03T09:50:28.798Z,12.40
2022-10-03T09:53:20.267Z,12.50
2022-10-03T09:56:26.589Z,12.50
2022-10-03T09:59:08.796Z,12.60
2022-10-03T10:02:15.634Z,12.60
2022-10-03T10:05:07.500Z,12.70
2022-10-03T10:07:56.412Z,12.80
2022-10-03T10:10:58.117Z,12.80
2022-10-03T10:14:07.588Z,12.70
2022-10-03T10:17:00.491Z,12.70
2022-10-03T10:19:57.168Z,12.70
2022-10-03T10:22:27.358Z,12.70
2022-10-03T10:25:25.132Z,12.80
2022-10-03T10:28:05.219Z,12.80
2022-10-03T10:30:51.115Z,12.80
2022-10-03T10:33:22.043Z,12.90
2022-10-03T10:36:07.552Z,12.90
2022-10-03T10:38:34.852Z,13.00
2022-10-03T10:41:22.976Z,12.90
2022-10-03T10:44:33.022Z,12.90
2022-10-03T10:47:18.136Z,12.80
2022-10-03T10:50:17.564Z,12.80
2022-10-03T10:52:53.503Z,12.80
2022-10-03T10:55:46.269Z,13.00
2022-10-03T10:58:21.678Z,13.00
2022-10-03T11:01:12.793Z,13.00
2022-10-03T11:03:57.669Z,13.10
2022-10-03T11:06:37.241Z,13.30
2022-10-03T11:09:42.709Z,13.40
2022-10-03T11:12:21.828Z,13.40
2022-10-03T11:15:06.752Z,13.40
2022-10-03T11:18:08.504Z,13.40
2022-10-03T11:20:57.490Z,13.40
2022-10-03T11:23:49.624Z,13.30
2022-10-03T11:27:07.203Z,13.30
2022-10-03T11:30:08.088Z,13.30
2022-10-03T11:32:43.933Z,13.40
2022-10-03T11:35:43.146Z,13.50
2022-10-03T11:38:29.338Z,13.70
2022-10-03T11:41:10.339Z,14.00
2022-10-03T11:44:14.147Z,14.10
2022-10-03T11:46:51.702Z,14.10
2022-10-03T11:49:39.805Z,14.10
2022-10-03T11:52:31.827Z,14.10
2022-10-03T11:55:25.561Z,14.10
2022-10-03T11:58:24.942Z,14.10
2022-10-03T12:01:24.615Z,14.10
2022-10-03T12:04:03.763Z,14.20
2022-10-03T12:06:55.455Z,14.10
2022-10-03T12:09:29.765Z,14.10
2022-10-03T12:12:05.724Z,14.10
2022-10-03T12:14:47.528Z,14.10
2022-10-03T12:17:44.565Z,14.20
2022-10-03T12:20:23.997Z,14.10
2022-10-03T12:23:15.491Z,14.20
2022-10-03T12:25:46.222Z,14.00
2022-10-03T12:28:48.643Z,14.10
2022-10-03T12:31:29.242Z,14.10
2022-10-03T12:34:33.027Z,14.00
2022-10-03T12:37:44.696Z,13.90
2022-10-03T12:40:26.141Z,13.90
2022-10-03T12:43:17.749Z,14.00
2022-10-03T12:46:12.538Z,14.10
2022-10-03T12:48:49.199Z,14.10
2022-10-03T12:51:16.467Z,14.10
2022-10-03T12:53:59.902Z,13.90
2022-10-03T12:56:39.209Z,13.80
2022-10-03T12:59:42.368Z,13.70
2022-10-03T13:02:21.691Z,13.70
2022-10-03T13:04:54.868Z,13.70
2022-10-03T13:07:52.520Z,13.70
2022-10-03T13:10:38.497Z,13.60
2022-10-03T13:13:29.836Z,13.80
2022-10-03T13:16:16.551Z,13.90
2022-10-03T13:18:52.898Z,14.00
2022-10-03T13:21:46.527Z,14.10
2022-10-03T13:24:39.811Z,14.20
2022-10-03T13:27:26.345Z,14.20
2022-10-03T13:30:12.000Z,14.10
2022-10-03T13:32:44.273Z,14.00
2022-10-03T13:35:35.779Z,13.90
2022-10-03T13:38:19.004Z,13.90
2022-10-03T13:40:57.498Z,14.00
2022-10-03T13:43:35.789Z,14.10
2022-10-03T13:46:15.209Z,14.20
2022-10-03T13:48:50.274Z,14.20
2022-10-03T13:51:47.655Z,14.30
2022-10-03T13:54:39.493Z,14.30
2022-10-03T13:57:23.540Z,14.40
2022-10-03T14:00:09.742Z,14.50
2022-10-03T14:03:05.106Z,14.50
2022-10-03T14:05:55.807Z,14.50
2022-10-03T14:08:32.070Z,14.30
2022-10-03T14:11:57.769Z,14.20
2022-10-03T14:14:36.925Z,14.00
2022-10-03T14:17:29.122Z,13.90
2022-10-03T14:20:13.986Z,13.80
2022-10-03T14:22:56.996Z,13.80
2022-10-03T14:25:30.100Z,13.80
2022-10-03T14:28:10.442Z,13.90
2022-10-03T14:31:07.394Z,13.90
2022-10-03T14:33:40.184Z,13.80
2022-10-03T14:36:47.436Z,13.80
2022-10-03T14:39:39.104Z,13.80
2022-10-03T14:42:26.240Z,13.80
2022-10-03T14:45:03.832Z,13.70
2022-10-03T14:47:46.614Z,13.70
2022-10-03T14:50:22.173Z,13.70
2022-10-03T14:53:02.749Z,13.60
2022-10-03T14:55:46.090Z,13.50
2022-10-03T14:58:22.238Z,13.50
2022-10-03T15:00:55.558Z,13.40
2022-10-03T15:03:33.810Z,13.40
2022-10-03T15:06:10.669Z,13.30
2022-10-03T15:08:44.843Z,13.30
2022-10-03T15:11:15.362Z,13.20
2022-10-03T15:13:55.700Z,13.20
2022-10-03T15:16:24.742Z,13.10
2022-10-03T15:19:07.306Z,13.00
2022-10-03T15:21:35.215Z,12.90
2022-10-03T15:24:08.108Z,12.90
2022-10-03T15:26:37.587Z,12.90
2022-10-03T15:29:06.921Z,12.90
2022-10-03T15:31:48.676Z,12.90
2022-10-03T15:34:25.490Z,12.80
2022-10-03T15:37:01.648Z,12.80
2022-10-03T15:39:38.052Z,12.80
2022-10-03T15:42:29.262Z,12.80
2022-10-03T15:45:01.862Z,12.70
2022-10-03T15:47:32.461Z,12.70
2022-10-03T15:50:24.714Z,12.70
2022-10-03T15:53:12.453Z,12.60
2022-10-03T15:56:00.134Z,12.60
2022-10-03T15:58:34.726Z,12.50
2022-10-03T16:01:18.778Z,12.60
2022-10-03T16:03:50.179Z,12.50
2022-10-03T16:06:36.061Z,12.50
2022-10-03T16:09:19.712Z,12.50
2022-10-03T16:12:24.331Z,12.40
2022-10-03T16:15:13.970Z,12.40
2022-10-03T16:17:53.146Z,12.40
2022-10-03T16:20:26.237Z,12.40
2022-10-03T16:22:57.391Z,12.40
2022-10-03T16:25:52.724Z,12.40
2022-10-03T16:28:24.343Z,12.30
2022-10-03T16:31:03.187Z,12.30
2022-10-03T16:33:38.426Z,12.20
2022-10-03T16:36:10.698Z,12.20
2022-10-03T16:38:52.727Z,12.20
2022-10-03T16:41:26.839Z,12.20
2022-10-03T16:43:57.021Z,12.20
2022-10-03T16:46:25.298Z,12.10
2022-10-03T16:49:14.875Z,12.10
2022-10-03T16:51:50.016Z,12.10
2022-10-03T16:54:20.249Z,12.10
2022-10-03T16:56:59.906Z,12.00
2022-10-03T16:59:29.995Z,12.00
2022-10-03T17:02:03.957Z,12.00
2022-10-03T17:04:31.753Z,12.00
2022-10-03T17:07:22.425Z,12.00
2022-10-03T17:09:51.602Z,11.90
2022-10-03T17:12:32.394Z,12.00
2022-10-03T17:15:26.273Z,12.00
2022-10-03T17:18:02.814Z,12.00
2022-10-03T17:20:39.148Z,11.90
2022-10-03T17:23:16.149Z,11.90
2022-10-03T17:25:49.668Z,11.90
2022-10-03T17:28:35.099Z,11.90
2022-10-03T17:31:06.322Z,11.90
2022-10-03T17:33:36.227Z,11.90
2022-10-03T17:36:15.598Z,11.90
2022-10-03T17:39:00.920Z,11.90
2022-10-03T17:41:44.401Z,11.90
2022-10-03T17:44:44.038Z,11.90
2022-10-03T17:47:37.292Z,11.90
2022-10-03T17:50:18.444Z,11.90
2022-10-03T17:52:47.853Z,11.80
2022-10-03T17:55:28.230Z,11.80
2022-10-03T17:57:59.232Z,11.80
2022-10-03T18:00:58.317Z,11.80
2022-10-03T18:03:32.415Z,11.80
2022-10-03T18:06:20.649Z,11.80
2022-10-03T18:08:50.787Z,11.80
2022-10-03T18:11:27.241Z,11.80
2022-10-03T18:14:29.457Z,11.70
2022-10-03T18:17:24.575Z,11.80
2022-10-03T18:20:26.284Z,11.70
2022-10-03T18:23:01.385Z,11.70
2022-10-03T18:26:19.102Z,11.70
2022-10-03T18:29:04.042Z,11.70
2022-10-03T18:31:35.343Z,11.70
2022-10-03T18:34:13.720Z,11.70
2022-10-03T18:36:48.146Z,11.70
2022-10-03T18:39:18.790Z,11.60
2022-10-03T18:41:55.737Z,11.60
2022-10-03T18:44:24.359Z,11.60
2022-10-03T18:47:08.220Z,11.60
2022-10-03T18:49:39.728Z,11.60
2022-10-03T18:52:16.559Z,11.60
2022-10-03T18:54:58.345Z,11.60
2022-10-03T18:57:43.086Z,11.50
2022-10-03T19:00:10.166Z,11.50
2022-10-03T19:02:49.411Z,11.50
2022-10-03T19:05:24.965Z,11.50
2022-10-03T19:08:02.955Z,11.50
2022-10-03T19:10:39.186Z,11.50
2022-10-03T19:13:29.673Z,11.50
2022-10-03T19:16:20.290Z,11.50
2022-10-03T19:18:47.376Z,11.50
2022-10-03T19:21:21.040Z,11.50
2022-10-03T19:24:30.581Z,11.50
2022-10-03T19:27:13.991Z,11.50
2022-10-03T19:29:56.892Z,11.50
2022-10-03T19:33:01.019Z,11.60
2022-10-03T19:35:29.768Z,11.50
2022-10-03T19:38:01.121Z,11.50
2022-10-03T19:40:38.549Z,11.50
2022-10-03T19:43:17.545Z,11.50
2022-10-03T19:46:16.364Z,11.50
2022-10-03T19:49:06.546Z,11.60
2022-10-03T19:51:34.051Z,11.60
2022-10-03T19:54:03.282Z,11.60
2022-10-03T19:56:34.916Z,11.60
2022-10-03T19:59:06.671Z,11.60
2022-10-03T20:01:48.745Z,11.60
2022-10-03T20:04:20.116Z,11.70
2022-10-03T20:06:50.091Z,11.70
2022-10-03T20:09:25.215Z,11.70
2022-10-03T20:12:08.925Z,11.70
2022-10-03T20:14:40.797Z,11.70
2022-10-03T20:17:24.585Z,11.70
2022-10-03T20:20:04.711Z,11.70
2022-10-03T20:22:36.550Z,11.70
2022-10-03T20:25:19.789Z,11.70
2022-10-03T20:27:53.510Z,11.70
2022-10-03T20:30:33.650Z,11.80
2022-10-03T20:33:00.825Z,11.70
2022-10-03T20:35:42.546Z,11.70
2022-10-03T20:38:22.430Z,11.70
2022-10-03T20:41:19.936Z,11.70
2022-10-03T20:44:03.923Z,11.80
2022-10-03T20:46:59.915Z,11.80
2022-10-03T20:49:34.089Z,11.80
2022-10-03T20:52:07.493Z,11.80
2022-10-03T20:54:47.682Z,11.80
2022-10-03T20:57:18.295Z,11.90
2022-10-03T20:59:47.326Z,11.90
2022-10-03T21:02:14.356Z,11.90
2022-10-03T21:05:13.563Z,11.90
2022-10-03T21:07:47.543Z,12.00
2022-10-03T21:10:26.153Z,12.00
2022-10-03T21:12:58.144Z,12.00
2022-10-03T21:15:29.951Z,12.00
2022-10-03T21:17:58.285Z,12.00
2022-10-03T21:20:35.775Z,12.00
2022-10-03T21:23:12.412Z,12.00
2022-10-03T21:25:42.787Z,12.00
2022-10-03T21:28:29.593Z,12.10
2022-10-03T21:31:21.593Z,12.10
2022-10-03T21:34:27.151Z,12.00
2022-10-03T21:37:19.603Z,12.10
2022-10-03T21:40:11.381Z,12.10
2022-10-03T21:43:11.981Z,12.10
2022-10-03T21:46:11.340Z,12.20
2022-10-03T21:48:54.929Z,12.10
2022-10-03T21:51:27.257Z,12.10
2022-10-03T21:54:13.051Z,12.20
2022-10-03T21:56:55.194Z,12.20
2022-10-03T22:00:08.760Z,12.20
2022-10-03T22:02:53.642Z,12.20
2022-10-03T22:05:39.398Z,12.20
2022-10-03T22:08:14.066Z,12.20
2022-10-03T22:10:58.112Z,12.20
2022-10-03T22:13:28.704Z,12.30
2022-10-03T22:16:07.019Z,12.30
2022-10-03T22:19:04.450Z,12.30
2022-10-03T22:21:51.905Z,12.40
2022-10-03T22:24:39.223Z,12.30
2022-10-03T22:27:28.733Z,12.30
2022-10-03T22:30:21.570Z,12.30
2022-10-03T22:33:09.298Z,12.30
2022-10-03T22:35:50.802Z,12.30
2022-10-03T22:38:22.555Z,12.30
2022-10-03T22:40:51.345Z,12.30
2022-10-03T22:43:19.468Z,12.30
2022-10-03T22:45:49.582Z,12.40
2022-10-03T22:48:31.241Z,12.40
2022-10-03T22:50:59.966Z,12.40
2022-10-03T22:53:32.279Z,12.40
2022-10-03T22:56:01.683Z,12.50
2022-10-03T22:58:30.746Z,12.40
2022-10-03T23:01:05.833Z,12.40
2022-10-03T23:03:35.606Z,12.40
2022-10-03T23:06:21.593Z,12.40
2022-10-03T23:09:13.646Z,12.50
2022-10-03T23:11:44.034Z,12.50
2022-10-03T23:14:33.826Z,12.50
2022-10-03T23:17:23.582Z,12.60
2022-10-03T23:19:59.408Z,12.60
2022-10-03T23:22:29.928Z,12.60
2022-10-03T23:25:05.968Z,12.70
2022-10-03T23:28:01.501Z,12.70
2022-10-03T23:30:34.726Z,12.70
2022-10-03T23:33:02.157Z,12.70
2022-10-03T23:35:39.101Z,12.80
2022-10-03T23:38:32.085Z,12.70
2022-10-03T23:41:12.948Z,12.70
2022-10-03T23:43:57.053Z,12.60
2022-10-03T23:46:27.884Z,12.70
2022-10-03T23:48:56.620Z,12.70
2022-10-03T23:51:33.759Z,12.70
2022-10-03T23:54:05.331Z,12.70
2022-10-03T23:56:41.377Z,12.70
2022-10-03T23:59:24.092Z,12.80
